Sliven, Bulgaria
Current Conditions -  °F | °C
As of 4:00 AM on Friday 19 Dec 2014 (Local Time) from LBGO Reporting Station
Clear Clear  
Wind Chill: 39°   Ceiling: Unl
Heat Index: 39°   Visibility: 4mi
Dew Point: 39°   Wind: 1mph
Humidity: 100%   Direction: NA
Pressure: 30.18"   Gusts: NA
Location:  42.68°N, 26.32°E
Report Text: LBGO 190100Z VRB01KT 6000 NSC 04/04 Q1022 R99/19//95 NOSIG
Loading
Personal Weather Stations






























Interactive Weather Map New forecast layout! Learn more

10-Day Weather Forecast

Advertisements
Track Severe Weather on mobile